createdAt,value
2023-03-06T00:01:18.362Z,10.30
2023-03-06T00:04:16.668Z,10.20
2023-03-06T00:07:14.681Z,10.00
2023-03-06T00:10:18.617Z,9.90
2023-03-06T00:13:19.869Z,9.90
2023-03-06T00:16:17.878Z,9.90
2023-03-06T00:19:15.998Z,9.70
2023-03-06T00:22:17.312Z,9.70
2023-03-06T00:25:18.422Z,9.60
2023-03-06T00:28:16.374Z,9.60
2023-03-06T00:31:14.449Z,9.30
2023-03-06T00:34:12.551Z,9.50
2023-03-06T00:37:10.474Z,9.40
2023-03-06T00:40:11.803Z,8.90
2023-03-06T00:43:10.099Z,8.50
2023-03-06T00:46:08.258Z,8.40
2023-03-06T00:49:06.280Z,8.00
2023-03-06T00:52:04.455Z,7.30
2023-03-06T00:55:02.561Z,7.00
2023-03-06T00:58:00.481Z,7.00
2023-03-06T01:00:58.478Z,6.60
2023-03-06T01:03:59.559Z,6.50
2023-03-06T01:06:57.622Z,6.60
2023-03-06T01:09:55.472Z,6.70
2023-03-06T01:12:53.540Z,6.70
2023-03-06T01:15:51.450Z,6.60
2023-03-06T01:18:50.462Z,6.60
2023-03-06T01:21:48.511Z,6.50
2023-03-06T01:24:46.458Z,6.50
2023-03-06T01:27:44.326Z,6.40
2023-03-06T01:30:42.942Z,6.50
2023-03-06T01:33:41.120Z,6.50
2023-03-06T01:36:39.091Z,6.50
2023-03-06T01:39:36.871Z,6.30
2023-03-06T01:42:34.986Z,6.40
2023-03-06T01:45:59.743Z,6.40
2023-03-06T01:49:25.680Z,6.20
2023-03-06T01:52:26.865Z,6.30
2023-03-06T01:55:30.858Z,6.20
2023-03-06T01:58:29.144Z,6.30
2023-03-06T02:01:28.187Z,6.30
2023-03-06T02:04:29.646Z,6.30
2023-03-06T02:07:27.819Z,6.40
2023-03-06T02:10:26.601Z,6.50
2023-03-06T02:13:24.681Z,6.50
2023-03-06T02:16:29.044Z,6.50
2023-03-06T02:19:54.036Z,6.60
2023-03-06T02:23:14.613Z,6.60
2023-03-06T02:26:14.578Z,6.80
2023-03-06T02:29:12.560Z,6.90
2023-03-06T02:32:12.873Z,7.00
2023-03-06T02:35:21.425Z,7.20
2023-03-06T02:38:21.834Z,7.30
2023-03-06T02:41:19.691Z,7.40
2023-03-06T02:44:17.675Z,7.60
2023-03-06T02:47:15.596Z,7.70
2023-03-06T02:50:13.644Z,7.80
2023-03-06T02:53:13.078Z,8.00
2023-03-06T02:56:11.149Z,8.20
2023-03-06T02:59:08.961Z,8.40
2023-03-06T03:02:09.338Z,8.60
2023-03-06T03:05:10.806Z,8.80
2023-03-06T03:08:08.925Z,9.00
2023-03-06T03:11:07.060Z,9.10
2023-03-06T03:14:05.220Z,9.10
2023-03-06T03:17:03.583Z,9.20
2023-03-06T03:20:01.708Z,9.30
2023-03-06T03:22:59.505Z,9.50
2023-03-06T03:25:57.429Z,9.70
2023-03-06T03:28:55.323Z,9.80
2023-03-06T03:31:53.351Z,10.00
2023-03-06T03:34:51.385Z,10.20
2023-03-06T03:37:49.389Z,10.40
2023-03-06T03:40:47.162Z,10.60
2023-03-06T03:43:45.448Z,10.70
2023-03-06T03:46:43.351Z,10.80
2023-03-06T03:49:41.332Z,10.90
2023-03-06T03:52:39.398Z,11.00
2023-03-06T03:55:37.342Z,11.20
2023-03-06T03:58:35.330Z,11.40
2023-03-06T04:01:33.438Z,11.40
2023-03-06T04:04:32.438Z,11.60
2023-03-06T04:07:30.518Z,11.70
2023-03-06T04:10:28.332Z,11.80
2023-03-06T04:13:26.735Z,11.90
2023-03-06T04:16:24.701Z,12.00
2023-03-06T04:19:22.677Z,12.00
2023-03-06T04:22:20.714Z,12.10
2023-03-06T04:25:18.729Z,12.10
2023-03-06T04:28:17.134Z,12.00
2023-03-06T04:31:15.087Z,12.00
2023-03-06T04:34:12.916Z,12.00
2023-03-06T04:37:19.387Z,12.10
2023-03-06T04:40:24.737Z,12.10
2023-03-06T04:43:22.935Z,12.00
2023-03-06T04:46:20.858Z,12.00
2023-03-06T04:49:18.788Z,12.00
2023-03-06T04:52:16.717Z,11.90
2023-03-06T04:55:16.914Z,12.10
2023-03-06T04:58:15.599Z,12.00
2023-03-06T05:01:13.962Z,11.90
2023-03-06T05:04:11.806Z,11.90
2023-03-06T05:07:09.800Z,11.80
2023-03-06T05:10:08.335Z,11.80
2023-03-06T05:13:06.657Z,11.80
2023-03-06T05:16:06.339Z,11.70
2023-03-06T05:19:04.440Z,11.70
2023-03-06T05:22:02.426Z,11.80
2023-03-06T05:25:00.972Z,11.70
2023-03-06T05:27:59.091Z,11.80
2023-03-06T05:30:57.680Z,11.80
2023-03-06T05:33:55.530Z,11.80
2023-03-06T05:36:53.471Z,11.90
2023-03-06T05:39:51.810Z,12.00
2023-03-06T05:42:49.765Z,12.00
2023-03-06T05:45:47.617Z,12.00
2023-03-06T05:48:46.963Z,11.90
2023-03-06T05:51:44.950Z,12.00
2023-03-06T05:54:43.721Z,12.10
2023-03-06T05:57:41.984Z,12.10
2023-03-06T06:00:39.916Z,12.10
2023-03-06T06:03:38.226Z,12.10
2023-03-06T06:06:36.183Z,12.10
2023-03-06T06:09:34.010Z,12.20
2023-03-06T06:12:32.324Z,12.20
2023-03-06T06:15:30.180Z,12.30
2023-03-06T06:18:28.126Z,12.40
2023-03-06T06:21:25.950Z,12.40
2023-03-06T06:24:26.392Z,12.40
2023-03-06T06:27:24.329Z,12.30
2023-03-06T06:30:22.636Z,12.40
2023-03-06T06:33:20.453Z,12.50
2023-03-06T06:36:20.350Z,12.50
2023-03-06T06:39:19.590Z,12.50
2023-03-06T06:42:39.064Z,12.50
2023-03-06T06:45:35.618Z,12.60
2023-03-06T06:48:33.607Z,12.70
2023-03-06T06:51:33.166Z,12.90
2023-03-06T06:54:31.244Z,13.00
2023-03-06T06:57:29.066Z,13.00
2023-03-06T07:00:27.282Z,13.10
2023-03-06T07:03:25.220Z,13.10
2023-03-06T07:06:23.714Z,13.20
2023-03-06T07:09:22.773Z,13.10
2023-03-06T07:12:20.753Z,12.90
2023-03-06T07:15:19.469Z,13.10
2023-03-06T07:18:17.467Z,13.10
2023-03-06T07:21:15.341Z,13.10
2023-03-06T07:24:13.609Z,13.10
2023-03-06T07:27:11.464Z,13.10
2023-03-06T07:30:10.169Z,13.30
2023-03-06T07:33:08.149Z,13.50
2023-03-06T07:36:12.777Z,13.30
2023-03-06T07:39:11.474Z,13.20
2023-03-06T07:42:10.681Z,13.20
2023-03-06T07:45:09.524Z,12.90
2023-03-06T07:48:07.675Z,12.80
2023-03-06T07:51:08.068Z,13.00
2023-03-06T07:54:06.094Z,13.20
2023-03-06T07:57:04.092Z,13.20
2023-03-06T08:00:02.085Z,13.40
2023-03-06T08:02:59.929Z,13.50
2023-03-06T08:06:08.146Z,13.80
2023-03-06T08:09:06.121Z,14.00
2023-03-06T08:12:04.150Z,14.00
2023-03-06T08:15:02.195Z,13.70
2023-03-06T08:18:00.419Z,13.70
2023-03-06T08:21:09.406Z,13.70
2023-03-06T08:24:08.302Z,13.70
2023-03-06T08:27:06.450Z,13.70
2023-03-06T08:30:05.296Z,13.70
2023-03-06T08:33:03.312Z,13.80
2023-03-06T08:36:02.349Z,13.60
2023-03-06T08:39:01.042Z,13.70
2023-03-06T08:41:59.032Z,14.10
2023-03-06T08:44:56.817Z,14.20
2023-03-06T08:47:54.718Z,14.40
2023-03-06T08:50:52.734Z,14.70
2023-03-06T08:53:51.400Z,14.90
2023-03-06T08:56:49.240Z,15.00
2023-03-06T08:59:47.164Z,14.90
2023-03-06T09:02:45.132Z,14.60
2023-03-06T09:05:43.093Z,14.80
2023-03-06T09:08:43.610Z,15.20
2023-03-06T09:11:41.661Z,15.20
2023-03-06T09:14:39.480Z,14.80
2023-03-06T09:17:37.432Z,14.70
2023-03-06T09:20:35.262Z,14.60
2023-03-06T09:23:34.028Z,14.70
2023-03-06T09:26:44.993Z,14.70
2023-03-06T09:29:44.288Z,14.80
2023-03-06T09:32:42.142Z,14.40
2023-03-06T09:35:56.879Z,14.40
2023-03-06T09:38:54.974Z,14.70
2023-03-06T09:41:54.143Z,14.60
2023-03-06T09:44:56.554Z,14.60
2023-03-06T09:48:07.316Z,15.00
2023-03-06T09:51:13.302Z,15.00
2023-03-06T09:54:15.073Z,15.20
2023-03-06T09:57:23.441Z,15.30
2023-03-06T10:00:29.243Z,15.40
2023-03-06T10:03:45.892Z,15.50
2023-03-06T10:06:50.058Z,15.30
2023-03-06T10:09:55.075Z,15.20
2023-03-06T10:13:23.554Z,15.10
2023-03-06T10:16:29.402Z,15.00
2023-03-06T10:19:36.089Z,15.20
2023-03-06T10:22:48.022Z,15.00
2023-03-06T10:26:03.581Z,15.10
2023-03-06T10:29:24.379Z,15.10
2023-03-06T10:32:46.232Z,15.00
2023-03-06T10:35:50.814Z,14.90
2023-03-06T10:38:49.526Z,15.10
2023-03-06T10:41:48.578Z,15.10
2023-03-06T10:44:46.605Z,14.90
2023-03-06T10:47:45.224Z,14.70
2023-03-06T10:50:43.297Z,14.70
2023-03-06T10:53:52.737Z,14.90
2023-03-06T10:56:50.736Z,15.00
2023-03-06T10:59:58.350Z,15.00
2023-03-06T11:03:18.255Z,14.70
2023-03-06T11:06:32.269Z,14.60
2023-03-06T11:09:30.190Z,14.50
2023-03-06T11:12:33.969Z,14.40
2023-03-06T11:15:32.683Z,14.30
2023-03-06T11:18:39.517Z,14.00
2023-03-06T11:21:40.618Z,14.10
2023-03-06T11:24:44.939Z,14.10
2023-03-06T11:27:45.681Z,14.00
2023-03-06T11:30:47.972Z,13.90
2023-03-06T11:33:55.040Z,13.70
2023-03-06T11:37:02.036Z,13.60
2023-03-06T11:40:21.677Z,13.60
2023-03-06T11:43:26.007Z,13.50
2023-03-06T11:46:29.202Z,13.50
2023-03-06T11:49:35.392Z,13.50
2023-03-06T11:52:58.097Z,13.50
2023-03-06T11:56:05.877Z,13.50
2023-03-06T11:59:35.251Z,13.50
2023-03-06T12:03:00.207Z,13.50
2023-03-06T12:06:21.601Z,13.50
2023-03-06T12:09:34.320Z,13.40
2023-03-06T12:12:52.027Z,13.30
2023-03-06T12:16:19.198Z,13.30
2023-03-06T12:19:30.778Z,13.30
2023-03-06T12:22:53.409Z,13.30
2023-03-06T12:26:30.239Z,13.30
2023-03-06T12:29:55.712Z,13.20
2023-03-06T12:33:13.341Z,13.10
2023-03-06T12:36:38.639Z,13.10
2023-03-06T12:39:58.367Z,13.00
2023-03-06T12:43:27.086Z,12.80
2023-03-06T12:46:27.952Z,12.60
2023-03-06T12:49:32.935Z,12.40
2023-03-06T12:52:33.675Z,12.40
2023-03-06T12:55:40.651Z,12.40
2023-03-06T12:58:55.271Z,12.40
2023-03-06T13:02:15.347Z,12.30
2023-03-06T13:05:39.150Z,12.20
2023-03-06T13:09:03.998Z,12.00
2023-03-06T13:12:30.554Z,12.00
2023-03-06T13:15:46.365Z,11.90
2023-03-06T13:18:52.690Z,11.80
2023-03-06T13:22:02.544Z,11.70
2023-03-06T13:25:35.507Z,11.60
2023-03-06T13:28:50.758Z,11.50
2023-03-06T13:32:18.180Z,11.40
2023-03-06T13:35:51.103Z,11.30
2023-03-06T13:39:07.367Z,11.30
2023-03-06T13:42:07.806Z,11.30
2023-03-06T13:45:17.838Z,11.20
2023-03-06T13:48:44.185Z,11.10
2023-03-06T13:52:06.086Z,11.00
2023-03-06T13:55:28.008Z,10.80
2023-03-06T13:58:48.594Z,10.80
2023-03-06T14:02:06.916Z,10.90
2023-03-06T14:05:13.414Z,11.00
2023-03-06T14:08:17.812Z,11.00
2023-03-06T14:11:22.173Z,10.90
2023-03-06T14:14:29.210Z,10.80
2023-03-06T14:17:32.653Z,10.90
2023-03-06T14:20:43.381Z,10.90
2023-03-06T14:23:46.570Z,11.00
2023-03-06T14:26:46.534Z,11.10
2023-03-06T14:29:47.247Z,11.10
2023-03-06T14:32:45.440Z,11.10
2023-03-06T14:35:43.559Z,11.00
2023-03-06T14:38:49.518Z,11.00
2023-03-06T14:41:47.661Z,11.00
2023-03-06T14:44:46.491Z,11.00
2023-03-06T14:47:49.988Z,11.00
2023-03-06T14:50:53.218Z,10.50
2023-03-06T14:53:51.706Z,10.10
2023-03-06T14:56:54.304Z,9.90
2023-03-06T14:59:59.659Z,9.70
2023-03-06T15:02:58.327Z,9.30
2023-03-06T15:05:57.014Z,8.60
2023-03-06T15:09:07.483Z,8.60
2023-03-06T15:12:09.348Z,8.30
2023-03-06T15:15:28.880Z,8.30
2023-03-06T15:18:31.007Z,8.50
2023-03-06T15:21:34.452Z,8.70
2023-03-06T15:24:36.075Z,8.70
2023-03-06T15:27:33.894Z,8.80
2023-03-06T15:30:34.935Z,8.70
2023-03-06T15:33:32.858Z,8.70
2023-03-06T15:36:33.639Z,8.30
2023-03-06T15:39:38.869Z,8.40
2023-03-06T15:42:37.402Z,8.40
2023-03-06T15:45:36.127Z,8.50
2023-03-06T15:48:36.128Z,8.50
2023-03-06T15:51:34.692Z,8.60
2023-03-06T15:54:33.097Z,8.60
2023-03-06T15:57:31.105Z,8.70
2023-03-06T16:00:35.132Z,8.60
2023-03-06T16:03:33.192Z,8.60
2023-03-06T16:06:31.128Z,8.60
2023-03-06T16:09:29.075Z,8.70
2023-03-06T16:12:28.976Z,8.70
2023-03-06T16:15:29.685Z,8.40
2023-03-06T16:18:27.649Z,8.40
2023-03-06T16:21:25.456Z,8.30
2023-03-06T16:24:23.734Z,8.20
2023-03-06T16:27:23.959Z,8.20
2023-03-06T16:30:23.041Z,8.30
2023-03-06T16:33:21.045Z,8.30
2023-03-06T16:36:24.172Z,8.30
2023-03-06T16:39:23.736Z,8.30
2023-03-06T16:42:23.788Z,8.30
2023-03-06T16:45:22.672Z,8.30
2023-03-06T16:48:20.616Z,8.30
2023-03-06T16:51:21.076Z,8.20
2023-03-06T16:54:19.378Z,8.20
2023-03-06T16:57:18.054Z,8.20
2023-03-06T17:00:17.667Z,8.10
2023-03-06T17:03:17.326Z,8.10
2023-03-06T17:06:19.052Z,8.10
2023-03-06T17:09:16.870Z,8.00
2023-03-06T17:12:15.058Z,8.10
2023-03-06T17:15:13.072Z,7.90
2023-03-06T17:18:11.121Z,7.80
2023-03-06T17:21:09.427Z,7.90
2023-03-06T17:24:07.900Z,7.80
2023-03-06T17:27:05.925Z,7.70
2023-03-06T17:30:05.020Z,7.70
2023-03-06T17:33:03.303Z,7.80
2023-03-06T17:36:02.296Z,7.70
2023-03-06T17:39:02.510Z,7.70
2023-03-06T17:42:00.883Z,7.60
2023-03-06T17:44:58.755Z,7.60
2023-03-06T17:47:57.010Z,7.60
2023-03-06T17:50:56.471Z,7.60
2023-03-06T17:53:54.413Z,7.50
2023-03-06T17:56:52.379Z,7.50
2023-03-06T17:59:50.559Z,7.50
2023-03-06T18:02:48.341Z,7.50
2023-03-06T18:05:46.329Z,7.50
2023-03-06T18:08:44.935Z,7.50
2023-03-06T18:11:42.933Z,7.50
2023-03-06T18:14:40.897Z,7.50
2023-03-06T18:17:39.278Z,7.40
2023-03-06T18:20:46.929Z,7.40
2023-03-06T18:23:45.285Z,7.40
2023-03-06T18:26:43.389Z,7.30
2023-03-06T18:29:41.518Z,7.30
2023-03-06T18:32:39.595Z,7.30
2023-03-06T18:35:38.263Z,7.30
2023-03-06T18:38:36.309Z,7.40
2023-03-06T18:41:34.247Z,7.40
2023-03-06T18:44:32.063Z,7.40
2023-03-06T18:47:30.144Z,7.50
2023-03-06T18:50:27.977Z,7.50
2023-03-06T18:53:25.945Z,7.60
2023-03-06T18:56:23.970Z,7.70
2023-03-06T18:59:21.938Z,7.60
2023-03-06T19:02:19.938Z,7.70
2023-03-06T19:05:18.008Z,7.80
2023-03-06T19:08:17.007Z,7.80
2023-03-06T19:11:17.235Z,7.80
2023-03-06T19:14:15.770Z,7.90
2023-03-06T19:17:13.737Z,7.90
2023-03-06T19:20:12.363Z,7.90
2023-03-06T19:23:10.532Z,7.90
2023-03-06T19:26:09.182Z,8.00
2023-03-06T19:29:07.334Z,8.00
2023-03-06T19:32:05.497Z,8.10
2023-03-06T19:35:04.276Z,8.20
2023-03-06T19:38:02.204Z,8.10
2023-03-06T19:41:01.171Z,8.10
2023-03-06T19:44:02.835Z,8.20
2023-03-06T19:47:00.770Z,8.30
2023-03-06T19:49:58.722Z,8.40
2023-03-06T19:52:58.471Z,8.50
2023-03-06T19:56:04.412Z,8.50
2023-03-06T19:59:02.470Z,8.40
2023-03-06T20:02:00.322Z,8.50
2023-03-06T20:05:00.012Z,8.50
2023-03-06T20:07:57.845Z,8.50
2023-03-06T20:10:55.957Z,8.60
2023-03-06T20:13:54.443Z,8.60
2023-03-06T20:16:52.494Z,8.70
2023-03-06T20:19:50.472Z,8.70
2023-03-06T20:22:48.398Z,8.70
2023-03-06T20:25:46.208Z,8.70
2023-03-06T20:28:44.290Z,8.70
2023-03-06T20:31:42.352Z,8.70
2023-03-06T20:34:40.966Z,8.70
2023-03-06T20:37:39.293Z,8.70
2023-03-06T20:40:40.096Z,8.80
2023-03-06T20:43:38.038Z,8.80
2023-03-06T20:46:36.942Z,8.80
2023-03-06T20:49:34.869Z,8.80
2023-03-06T20:52:32.872Z,8.70
2023-03-06T20:55:30.683Z,8.80
2023-03-06T20:58:33.306Z,8.80
2023-03-06T21:01:33.773Z,8.90
2023-03-06T21:04:31.863Z,8.80
2023-03-06T21:07:29.722Z,8.90
2023-03-06T21:10:27.713Z,8.70
2023-03-06T21:13:25.592Z,8.70
2023-03-06T21:16:25.601Z,8.80
2023-03-06T21:19:23.506Z,8.90
2023-03-06T21:22:21.495Z,8.90
2023-03-06T21:25:19.300Z,8.80
2023-03-06T21:28:18.039Z,8.80
2023-03-06T21:31:17.755Z,8.80
2023-03-06T21:34:15.830Z,8.80
2023-03-06T21:37:13.920Z,8.80
2023-03-06T21:40:12.815Z,8.80
2023-03-06T21:43:10.903Z,8.80
2023-03-06T21:46:09.146Z,8.80
2023-03-06T21:49:07.157Z,8.80
2023-03-06T21:52:05.237Z,8.70
2023-03-06T21:55:03.454Z,8.80
2023-03-06T21:58:01.449Z,8.70
2023-03-06T22:00:59.346Z,8.80
2023-03-06T22:03:59.107Z,8.80
2023-03-06T22:06:56.937Z,8.90
2023-03-06T22:09:55.259Z,8.90
2023-03-06T22:12:53.038Z,8.80
2023-03-06T22:15:53.385Z,8.70
2023-03-06T22:18:52.425Z,8.60
2023-03-06T22:21:50.496Z,8.60
2023-03-06T22:24:49.241Z,8.70
2023-03-06T22:27:47.511Z,8.70
2023-03-06T22:30:46.515Z,8.70
2023-03-06T22:33:44.675Z,8.70
2023-03-06T22:36:42.960Z,8.70
2023-03-06T22:39:40.927Z,8.70
2023-03-06T22:42:38.710Z,8.70
2023-03-06T22:45:36.636Z,8.70
2023-03-06T22:48:34.700Z,8.70
2023-03-06T22:51:32.757Z,8.80
2023-03-06T22:54:30.763Z,8.70
2023-03-06T22:57:28.777Z,8.70
2023-03-06T23:00:26.839Z,8.70
2023-03-06T23:03:24.985Z,8.60
2023-03-06T23:06:26.832Z,8.60
2023-03-06T23:09:25.894Z,8.50
2023-03-06T23:12:23.733Z,8.40
2023-03-06T23:15:21.643Z,8.40
2023-03-06T23:18:19.702Z,8.40
2023-03-06T23:21:19.161Z,8.30
2023-03-06T23:24:17.684Z,8.30
2023-03-06T23:27:16.268Z,8.30
2023-03-06T23:30:14.577Z,8.30
2023-03-06T23:33:12.622Z,8.30
2023-03-06T23:36:12.756Z,8.30
2023-03-06T23:39:12.493Z,8.30
2023-03-06T23:42:10.348Z,8.30
2023-03-06T23:45:08.928Z,8.30
2023-03-06T23:48:08.494Z,8.20
2023-03-06T23:51:10.089Z,8.10
2023-03-06T23:54:08.021Z,8.10
2023-03-06T23:57:06.134Z,8.00
